Pagina principală
METAR-TAF:

METAR-TAF

Aeroporturi :

Ilo, Peru

Latitudine: 17-41-45S, longitudine: 071-20-35W, elevație: 22 m

Observații meteo curente

Raportul a fost făcut în urmă cu 12 ore și 31 de minute, la 21:00 UTC
Vânt 5 kt de la Sud-vest
Temperatură 19°C
Umiditate 73%
Presiune 1016 hPa
Vizibilitate de 10 km sau mai mult
Total acoperit la o înălțime de 2500 picior

METAR: SPLO 132100Z 23005KT 9999 OVC025 19/14 Q1016 RMK TX19.8 PP000

Ora: 04:31 (09:31 UTC)

Prognoză

Raportul a fost făcut în urmă cu 16 ore și 31 de minute, la 17:00 UTC
Prognoză valabilă de la 13 ora 18 UTC la 14 ora 18 UTC
Vânt 7 kt de la Sud/Sud-est
Vizibilitate de 10 km sau mai mult
Total acoperit la o înălțime de 2000 picior
De la 14 ora 1630 UTC
Vânt 7 kt de la Sud
Vizibilitate de 10 km sau mai mult
Nori împrăștiați la o înălțime de 2500 picior

TAF: SPLO 131700Z 1318/1418 16007KT 9999 OVC020 TX20/1319Z TN16/1411Z FM141630 19007KT 9999 SCT025

Observații și prognoze meteo pentru peste 4.000 de aeroporturi (rapoarte METAR și TAF).

Stațiile disponibile sunt reprezentate pe hartă prin puncte galbene și roșii.

Țineți indicatorul mouse-ului pe punctul dorit pentru a vedea denumirea stației.

Apoi, faceți clic pentru a vedea observațiile și prognozele meteorologice.

Pentru a schimba harta: Pentru mărire, faceți clic pe butoanele verzi cu cruce neagră; pentru micșorare, pe butonul verde cu o liniuță; pentru hărți învecinate, pe săgețile verzi.


METAR-TAF: